createdAt,value
2022-10-17T00:00:22.968Z,7.63
2022-10-17T00:02:52.597Z,7.49
2022-10-17T00:05:22.307Z,7.50
2022-10-17T00:07:52.431Z,7.64
2022-10-17T00:10:22.960Z,7.47
2022-10-17T00:12:53.238Z,7.47
2022-10-17T00:15:24.927Z,7.45
2022-10-17T00:17:54.784Z,7.34
2022-10-17T00:20:24.677Z,7.48
2022-10-17T00:22:54.397Z,7.37
2022-10-17T00:25:24.136Z,7.44
2022-10-17T00:27:53.646Z,7.43
2022-10-17T00:30:24.926Z,7.38
2022-10-17T00:32:54.609Z,7.21
2022-10-17T00:35:24.163Z,7.19
2022-10-17T00:37:53.825Z,7.17
2022-10-17T00:40:23.545Z,7.36
2022-10-17T00:42:53.266Z,7.34
2022-10-17T00:45:24.119Z,7.23
2022-10-17T00:47:57.079Z,7.25
2022-10-17T00:50:28.176Z,7.15
2022-10-17T00:53:00.877Z,7.10
2022-10-17T00:55:32.259Z,7.05
2022-10-17T00:58:04.261Z,7.09
2022-10-17T01:00:33.907Z,7.11
2022-10-17T01:03:05.166Z,6.82
2022-10-17T01:05:35.477Z,7.01
2022-10-17T01:08:05.129Z,6.93
2022-10-17T01:10:40.790Z,6.79
2022-10-17T01:13:13.471Z,6.82
2022-10-17T01:15:52.881Z,6.89
2022-10-17T01:18:31.643Z,6.68
2022-10-17T01:21:35.518Z,6.89
2022-10-17T01:24:25.634Z,6.85
2022-10-17T01:27:00.344Z,6.74
2022-10-17T01:29:35.704Z,6.82
2022-10-17T01:32:10.741Z,6.66
2022-10-17T01:34:55.601Z,6.74
2022-10-17T01:37:32.652Z,6.68
2022-10-17T01:40:10.554Z,6.52
2022-10-17T01:42:43.692Z,6.56
2022-10-17T01:45:15.296Z,6.65
2022-10-17T01:47:48.223Z,6.74
2022-10-17T01:50:20.058Z,6.69
2022-10-17T01:52:52.291Z,6.45
2022-10-17T01:55:24.903Z,6.50
2022-10-17T01:57:56.340Z,6.41
2022-10-17T02:00:27.742Z,6.55
2022-10-17T02:03:00.483Z,6.53
2022-10-17T02:05:32.475Z,6.40
2022-10-17T02:08:02.379Z,6.50
2022-10-17T02:10:34.595Z,6.34
2022-10-17T02:13:07.880Z,6.43
2022-10-17T02:15:54.920Z,6.44
2022-10-17T02:18:34.954Z,6.28
2022-10-17T02:21:08.958Z,6.14
2022-10-17T02:23:40.669Z,5.99
2022-10-17T02:26:12.621Z,6.13
2022-10-17T02:28:45.810Z,6.27
2022-10-17T02:31:17.604Z,6.15
2022-10-17T02:33:50.516Z,6.10
2022-10-17T02:36:23.196Z,6.18
2022-10-17T02:38:54.947Z,6.07
2022-10-17T02:41:25.615Z,6.22
2022-10-17T02:43:58.801Z,6.21
2022-10-17T02:46:31.998Z,5.99
2022-10-17T02:49:05.248Z,6.21
2022-10-17T02:51:38.773Z,6.33
2022-10-17T02:54:15.658Z,6.56
2022-10-17T02:57:00.607Z,6.51
2022-10-17T02:59:31.504Z,6.18
2022-10-17T03:02:03.839Z,6.27
2022-10-17T03:04:35.176Z,6.02
2022-10-17T03:07:05.399Z,6.21
2022-10-17T03:09:35.232Z,6.17
2022-10-17T03:12:05.022Z,6.35
2022-10-17T03:14:35.439Z,6.24
2022-10-17T03:17:05.011Z,6.34
2022-10-17T03:19:36.140Z,6.24
2022-10-17T03:22:05.803Z,6.40
2022-10-17T03:24:35.370Z,6.33
2022-10-17T03:27:05.118Z,6.33
2022-10-17T03:29:34.927Z,6.10
2022-10-17T03:32:04.581Z,6.22
2022-10-17T03:34:34.246Z,6.05
2022-10-17T03:37:05.306Z,6.17
2022-10-17T03:39:35.244Z,6.34
2022-10-17T03:42:04.919Z,6.37
2022-10-17T03:44:34.417Z,6.39
2022-10-17T03:47:04.005Z,6.39
2022-10-17T03:49:33.657Z,6.27
2022-10-17T03:52:03.564Z,6.29
2022-10-17T03:54:34.579Z,6.43
2022-10-17T03:57:04.406Z,6.49
2022-10-17T03:59:34.292Z,6.47
2022-10-17T04:02:03.856Z,6.21
2022-10-17T04:04:33.458Z,6.10
2022-10-17T04:07:06.554Z,6.07
2022-10-17T04:09:38.911Z,6.29
2022-10-17T04:12:08.948Z,6.23
2022-10-17T04:14:38.752Z,6.38
2022-10-17T04:17:08.414Z,6.38
2022-10-17T04:19:38.985Z,6.23
2022-10-17T04:22:09.532Z,6.06
2022-10-17T04:24:40.534Z,5.89
2022-10-17T04:27:10.136Z,5.91
2022-10-17T04:29:39.825Z,5.94
2022-10-17T04:32:09.448Z,5.88
2022-10-17T04:34:39.026Z,5.66
2022-10-17T04:37:08.555Z,5.80
2022-10-17T04:39:40.408Z,5.79
2022-10-17T04:42:09.979Z,6.02
2022-10-17T04:44:39.548Z,6.03
2022-10-17T04:47:09.261Z,5.98
2022-10-17T04:49:38.844Z,5.85
2022-10-17T04:52:08.385Z,5.83
2022-10-17T04:54:37.847Z,6.05
2022-10-17T04:57:08.811Z,6.07
2022-10-17T04:59:38.608Z,6.12
2022-10-17T05:02:08.207Z,6.32
2022-10-17T05:04:38.099Z,6.51
2022-10-17T05:07:07.792Z,6.59
2022-10-17T05:09:37.428Z,6.24
2022-10-17T05:12:10.380Z,6.17
2022-10-17T05:14:40.519Z,6.42
2022-10-17T05:17:10.765Z,6.53
2022-10-17T05:19:40.711Z,6.34
2022-10-17T05:22:10.361Z,5.89
2022-10-17T05:24:39.947Z,6.42
2022-10-17T05:27:11.013Z,6.43
2022-10-17T05:29:40.834Z,6.40
2022-10-17T05:32:10.659Z,6.52
2022-10-17T05:34:40.239Z,6.53
2022-10-17T05:37:10.122Z,6.68
2022-10-17T05:39:39.898Z,6.83
2022-10-17T05:42:11.127Z,6.88
2022-10-17T05:44:41.492Z,6.84
2022-10-17T05:47:11.301Z,6.84
2022-10-17T05:49:46.328Z,6.98
2022-10-17T05:52:19.525Z,7.04
2022-10-17T05:54:49.166Z,7.00
2022-10-17T05:57:20.442Z,6.99
2022-10-17T05:59:50.019Z,7.10
2022-10-17T06:02:19.805Z,7.07
2022-10-17T06:04:50.223Z,7.27
2022-10-17T06:07:20.133Z,7.41
2022-10-17T06:09:50.470Z,7.37
2022-10-17T06:12:21.415Z,7.61
2022-10-17T06:14:51.027Z,7.77
2022-10-17T06:17:20.631Z,7.85
2022-10-17T06:19:50.496Z,7.95
2022-10-17T06:22:20.297Z,8.07
2022-10-17T06:24:49.948Z,8.18
2022-10-17T06:27:19.481Z,8.31
2022-10-17T06:29:51.266Z,8.35
2022-10-17T06:32:20.904Z,8.44
2022-10-17T06:34:50.700Z,8.51
2022-10-17T06:37:20.247Z,8.67
2022-10-17T06:39:49.799Z,8.81
2022-10-17T06:42:19.440Z,8.97
2022-10-17T06:44:50.589Z,9.11
2022-10-17T06:47:20.330Z,9.27
2022-10-17T06:49:49.900Z,9.41
2022-10-17T06:52:19.704Z,9.49
2022-10-17T06:54:49.584Z,9.56
2022-10-17T06:57:19.597Z,9.66
2022-10-17T06:59:50.603Z,9.77
2022-10-17T07:02:20.512Z,9.92
2022-10-17T07:04:50.040Z,10.07
2022-10-17T07:07:19.608Z,10.21
2022-10-17T07:09:49.289Z,10.33
2022-10-17T07:12:19.345Z,10.47
2022-10-17T07:14:50.569Z,10.61
2022-10-17T07:17:20.284Z,10.67
2022-10-17T07:19:49.941Z,10.69
2022-10-17T07:22:19.550Z,10.77
2022-10-17T07:27:24.726Z,11.00
2022-10-17T07:29:55.814Z,11.09
2022-10-17T07:32:25.465Z,11.17
2022-10-17T07:34:55.103Z,11.25
2022-10-17T07:37:24.726Z,11.36
2022-10-17T07:39:54.434Z,11.43
2022-10-17T07:42:24.236Z,11.49
2022-10-17T07:44:55.506Z,11.53
2022-10-17T07:47:25.030Z,11.60
2022-10-17T07:49:54.765Z,11.70
2022-10-17T07:52:25.013Z,11.78
2022-10-17T07:54:54.627Z,11.85
2022-10-17T07:57:24.328Z,11.88
2022-10-17T07:59:55.374Z,11.95
2022-10-17T08:02:25.988Z,12.03
2022-10-17T08:04:55.638Z,12.12
2022-10-17T08:07:28.521Z,12.18
2022-10-17T08:10:00.479Z,12.26
2022-10-17T08:12:32.844Z,12.30
2022-10-17T08:15:04.644Z,12.38
2022-10-17T08:17:35.298Z,12.44
2022-10-17T08:20:05.453Z,12.47
2022-10-17T08:22:36.284Z,12.57
2022-10-17T08:25:06.214Z,12.67
2022-10-17T08:27:36.245Z,12.71
2022-10-17T08:30:07.837Z,12.77
2022-10-17T08:32:37.501Z,12.81
2022-10-17T08:35:07.494Z,12.84
2022-10-17T08:37:37.226Z,12.88
2022-10-17T08:40:07.839Z,13.08
2022-10-17T08:42:46.979Z,13.11
2022-10-17T08:45:22.188Z,13.11
2022-10-17T08:47:53.967Z,13.26
2022-10-17T08:50:27.864Z,13.29
2022-10-17T08:53:00.651Z,13.43
2022-10-17T08:55:33.408Z,13.47
2022-10-17T08:58:03.148Z,13.47
2022-10-17T09:00:47.363Z,13.49
2022-10-17T09:03:24.368Z,13.52
2022-10-17T09:05:57.543Z,13.54
2022-10-17T09:08:33.561Z,13.60
2022-10-17T09:11:08.993Z,13.71
2022-10-17T09:13:49.295Z,13.78
2022-10-17T09:16:33.683Z,13.79
2022-10-17T09:19:05.510Z,13.78
2022-10-17T09:21:40.811Z,13.82
2022-10-17T09:24:15.910Z,13.85
2022-10-17T09:26:46.600Z,13.96
2022-10-17T09:29:18.886Z,13.96
2022-10-17T09:31:52.585Z,13.97
2022-10-17T09:34:26.735Z,14.00
2022-10-17T09:36:58.922Z,14.06
2022-10-17T09:39:32.054Z,14.12
2022-10-17T09:42:02.259Z,14.24
2022-10-17T09:44:32.536Z,14.32
2022-10-17T09:47:16.478Z,14.62
2022-10-17T09:49:47.016Z,14.79
2022-10-17T09:52:18.264Z,14.88
2022-10-17T09:54:49.571Z,14.80
2022-10-17T09:57:19.985Z,14.72
2022-10-17T09:59:56.598Z,14.69
2022-10-17T10:02:28.623Z,14.71
2022-10-17T10:05:04.278Z,14.68
2022-10-17T10:07:35.868Z,14.66
2022-10-17T10:10:07.527Z,14.70
2022-10-17T10:12:39.572Z,14.61
2022-10-17T10:15:24.093Z,14.56
2022-10-17T10:17:54.994Z,14.41
2022-10-17T10:20:30.766Z,14.33
2022-10-17T10:23:14.569Z,14.26
2022-10-17T10:25:58.112Z,14.30
2022-10-17T10:28:29.635Z,14.44
2022-10-17T10:31:01.388Z,14.73
2022-10-17T10:33:33.243Z,14.91
2022-10-17T10:36:03.838Z,15.01
2022-10-17T10:38:34.258Z,15.05
2022-10-17T10:41:05.270Z,15.07
2022-10-17T10:43:37.922Z,15.24
2022-10-17T10:46:17.617Z,15.39
2022-10-17T10:48:56.556Z,15.47
2022-10-17T10:51:29.576Z,15.59
2022-10-17T10:54:03.370Z,15.72
2022-10-17T10:56:36.273Z,15.94
2022-10-17T10:59:07.765Z,15.99
2022-10-17T11:01:43.353Z,16.09
2022-10-17T11:04:24.740Z,16.02
2022-10-17T11:06:59.848Z,16.09
2022-10-17T11:09:34.090Z,16.07
2022-10-17T11:12:07.297Z,16.09
2022-10-17T11:14:41.724Z,15.97
2022-10-17T11:17:18.689Z,15.97
2022-10-17T11:19:53.602Z,16.01
2022-10-17T11:22:29.248Z,16.26
2022-10-17T11:25:00.809Z,16.18
2022-10-17T11:27:31.302Z,16.15
2022-10-17T11:30:01.707Z,16.18
2022-10-17T11:32:35.264Z,16.22
2022-10-17T11:35:08.259Z,16.27
2022-10-17T11:37:41.065Z,16.28
2022-10-17T11:40:19.267Z,16.41
2022-10-17T11:42:54.391Z,16.32
2022-10-17T11:45:26.314Z,16.28
2022-10-17T11:48:00.125Z,16.23
2022-10-17T11:53:26.961Z,16.10
2022-10-17T11:55:59.711Z,16.04
2022-10-17T11:58:34.189Z,16.02
2022-10-17T12:01:15.263Z,16.13
2022-10-17T12:03:53.885Z,15.99
2022-10-17T12:06:32.563Z,15.89
2022-10-17T12:09:05.876Z,15.92
2022-10-17T12:11:40.314Z,15.98
2022-10-17T12:14:25.396Z,15.97
2022-10-17T12:16:55.710Z,15.92
2022-10-17T12:19:34.361Z,15.86
2022-10-17T12:22:19.631Z,15.86
2022-10-17T12:25:02.662Z,16.00
2022-10-17T12:27:43.766Z,15.96
2022-10-17T12:30:18.719Z,16.11
2022-10-17T12:33:07.752Z,16.15
2022-10-17T12:35:38.694Z,16.10
2022-10-17T12:38:20.803Z,16.08
2022-10-17T12:40:54.762Z,16.06
2022-10-17T12:43:57.712Z,16.08
2022-10-17T12:46:54.627Z,16.17
2022-10-17T12:49:39.297Z,16.16
2022-10-17T12:52:26.552Z,16.33
2022-10-17T12:55:11.407Z,16.26
2022-10-17T12:57:48.113Z,16.26
2022-10-17T13:00:20.477Z,16.17
2022-10-17T13:02:51.018Z,16.25
2022-10-17T13:05:25.886Z,16.29
2022-10-17T13:07:56.471Z,16.19
2022-10-17T13:10:29.146Z,16.17
2022-10-17T13:13:06.282Z,16.19
2022-10-17T13:15:38.468Z,16.31
2022-10-17T13:18:08.107Z,16.33
2022-10-17T13:20:39.477Z,16.29
2022-10-17T13:23:22.916Z,16.14
2022-10-17T13:26:05.060Z,16.14
2022-10-17T13:28:39.072Z,16.13
2022-10-17T13:31:27.672Z,16.26
2022-10-17T13:33:58.492Z,16.17
2022-10-17T13:36:28.627Z,16.25
2022-10-17T13:38:59.789Z,16.28
2022-10-17T13:41:36.339Z,16.25
2022-10-17T13:44:11.708Z,16.19
2022-10-17T13:46:41.861Z,16.13
2022-10-17T13:49:13.913Z,16.10
2022-10-17T13:51:45.190Z,16.06
2022-10-17T13:54:32.939Z,15.96
2022-10-17T13:57:05.510Z,15.96
2022-10-17T13:59:38.930Z,16.01
2022-10-17T14:02:14.941Z,16.00
2022-10-17T14:05:15.287Z,16.04
2022-10-17T14:07:58.227Z,15.97
2022-10-17T14:10:28.044Z,15.95
2022-10-17T14:13:00.442Z,15.86
2022-10-17T14:15:33.258Z,15.92
2022-10-17T14:18:07.573Z,15.95
2022-10-17T14:21:19.751Z,15.93
2022-10-17T14:23:33.606Z,16.05
2022-10-17T14:26:08.565Z,16.09
2022-10-17T14:28:40.008Z,16.00
2022-10-17T14:31:11.811Z,15.97
2022-10-17T14:33:49.661Z,15.94
2022-10-17T14:36:21.325Z,15.96
2022-10-17T14:38:53.163Z,15.86
2022-10-17T14:44:20.032Z,15.85
2022-10-17T14:46:55.166Z,15.90
2022-10-17T14:49:28.756Z,15.78
2022-10-17T14:52:15.140Z,15.70
2022-10-17T14:54:47.719Z,15.67
2022-10-17T14:57:19.766Z,15.64
2022-10-17T14:59:54.357Z,15.60
2022-10-17T15:02:25.794Z,15.61
2022-10-17T15:04:55.579Z,15.57
2022-10-17T15:07:25.324Z,15.52
2022-10-17T15:09:55.339Z,15.45
2022-10-17T15:12:26.270Z,15.42
2022-10-17T15:14:58.123Z,15.36
2022-10-17T15:17:29.266Z,15.33
2022-10-17T15:19:59.262Z,15.31
2022-10-17T15:22:29.533Z,15.23
2022-10-17T15:24:59.820Z,15.20
2022-10-17T15:27:32.729Z,15.15
2022-10-17T15:30:04.550Z,15.09
2022-10-17T15:32:34.327Z,15.05
2022-10-17T15:35:04.187Z,14.98
2022-10-17T15:37:37.647Z,14.93
2022-10-17T15:40:08.058Z,14.87
2022-10-17T15:42:38.165Z,14.79
2022-10-17T15:45:10.285Z,14.71
2022-10-17T15:47:40.234Z,14.67
2022-10-17T15:50:13.367Z,14.61
2022-10-17T15:52:43.570Z,14.54
2022-10-17T15:55:13.280Z,14.48
2022-10-17T15:57:44.490Z,14.42
2022-10-17T16:00:16.874Z,14.35
2022-10-17T16:02:47.125Z,14.31
2022-10-17T16:05:18.176Z,14.28
2022-10-17T16:07:48.568Z,14.24
2022-10-17T16:10:18.923Z,14.18
2022-10-17T16:12:50.495Z,14.15
2022-10-17T16:15:26.678Z,14.12
2022-10-17T16:17:57.886Z,14.06
2022-10-17T16:20:29.332Z,14.01
2022-10-17T16:23:02.495Z,13.97
2022-10-17T16:25:33.248Z,13.90
2022-10-17T16:28:03.444Z,13.85
2022-10-17T16:30:34.756Z,13.82
2022-10-17T16:33:04.837Z,13.79
2022-10-17T16:35:37.536Z,13.74
2022-10-17T16:38:07.920Z,13.68
2022-10-17T16:40:39.412Z,13.66
2022-10-17T16:43:09.294Z,13.60
2022-10-17T16:45:40.742Z,13.53
2022-10-17T16:48:10.677Z,13.50
2022-10-17T16:50:41.326Z,13.46
2022-10-17T16:53:11.099Z,13.43
2022-10-17T16:55:40.847Z,13.38
2022-10-17T16:58:13.523Z,13.33
2022-10-17T17:00:47.112Z,13.33
2022-10-17T17:03:20.206Z,13.30
2022-10-17T17:05:51.420Z,13.24
2022-10-17T17:08:21.933Z,13.18
2022-10-17T17:10:56.327Z,13.14
2022-10-17T17:13:26.759Z,13.11
2022-10-17T17:16:05.011Z,13.13
2022-10-17T17:18:35.416Z,13.06
2022-10-17T17:21:06.168Z,13.07
2022-10-17T17:23:37.024Z,13.05
2022-10-17T17:26:09.566Z,13.01
2022-10-17T17:28:39.820Z,13.01
2022-10-17T17:31:11.831Z,13.01
2022-10-17T17:33:42.450Z,13.03
2022-10-17T17:36:14.380Z,13.00
2022-10-17T17:38:44.601Z,12.96
2022-10-17T17:41:14.682Z,12.95
2022-10-17T17:43:45.373Z,12.87
2022-10-17T17:46:18.409Z,12.80
2022-10-17T17:48:50.802Z,12.74
2022-10-17T17:51:25.394Z,12.69
2022-10-17T17:53:59.757Z,12.63
2022-10-17T17:56:30.869Z,12.59
2022-10-17T17:59:01.969Z,12.57
2022-10-17T18:01:37.033Z,12.55
2022-10-17T18:04:08.969Z,12.50
2022-10-17T18:06:42.465Z,12.44
2022-10-17T18:09:16.221Z,12.38
2022-10-17T18:11:46.448Z,12.38
2022-10-17T18:14:16.504Z,12.38
2022-10-17T18:16:47.993Z,12.29
2022-10-17T18:19:18.195Z,12.09
2022-10-17T18:21:53.226Z,12.20
2022-10-17T18:24:23.349Z,12.19
2022-10-17T18:26:56.413Z,12.15
2022-10-17T18:29:29.459Z,12.06
2022-10-17T18:32:00.745Z,11.98
2022-10-17T18:34:32.321Z,11.99
2022-10-17T18:37:07.830Z,11.92
2022-10-17T18:39:37.928Z,11.94
2022-10-17T18:42:08.001Z,11.91
2022-10-17T18:44:43.134Z,11.92
2022-10-17T18:47:18.256Z,11.96
2022-10-17T18:49:48.917Z,11.92
2022-10-17T18:52:18.758Z,11.88
2022-10-17T18:54:48.609Z,11.89
2022-10-17T18:57:21.440Z,11.84
2022-10-17T18:59:53.951Z,11.81
2022-10-17T19:02:25.689Z,11.83
2022-10-17T19:04:55.482Z,11.82
2022-10-17T19:07:25.553Z,11.74
2022-10-17T19:09:55.518Z,11.75
2022-10-17T19:12:31.351Z,11.69
2022-10-17T19:15:01.602Z,11.60
2022-10-17T19:17:35.467Z,11.63
2022-10-17T19:20:05.739Z,11.59
2022-10-17T19:22:35.530Z,11.55
2022-10-17T19:25:08.328Z,11.58
2022-10-17T19:27:43.113Z,11.61
2022-10-17T19:30:21.585Z,11.54
2022-10-17T19:32:58.782Z,11.44
2022-10-17T19:35:31.508Z,11.39
2022-10-17T19:38:02.605Z,11.40
2022-10-17T19:40:32.370Z,11.35
2022-10-17T19:43:02.236Z,11.28
2022-10-17T19:45:34.849Z,11.31
2022-10-17T19:48:09.504Z,11.11
2022-10-17T19:50:41.341Z,11.22
2022-10-17T19:53:11.401Z,11.15
2022-10-17T19:55:41.226Z,11.16
2022-10-17T19:58:13.587Z,11.07
2022-10-17T20:00:50.012Z,11.08
2022-10-17T20:03:21.635Z,10.97
2022-10-17T20:05:51.636Z,10.97
2022-10-17T20:08:21.685Z,10.95
2022-10-17T20:10:51.997Z,10.94
2022-10-17T20:13:23.032Z,10.92
2022-10-17T20:15:56.576Z,10.90
2022-10-17T20:18:29.861Z,10.95
2022-10-17T20:21:03.584Z,10.83
2022-10-17T20:23:33.673Z,10.76
2022-10-17T20:26:25.311Z,10.74
2022-10-17T20:28:56.042Z,10.63
2022-10-17T20:31:28.533Z,10.69
2022-10-17T20:34:00.436Z,10.72
2022-10-17T20:36:30.468Z,10.72
2022-10-17T20:39:00.828Z,10.56
2022-10-17T20:41:31.902Z,10.60
2022-10-17T20:44:01.720Z,10.56
2022-10-17T20:46:44.725Z,10.56
2022-10-17T20:49:20.841Z,10.51
2022-10-17T20:51:52.921Z,10.50
2022-10-17T20:54:22.993Z,10.54
2022-10-17T20:56:52.767Z,10.48
2022-10-17T20:59:22.706Z,10.41
2022-10-17T21:01:55.018Z,10.28
2022-10-17T21:04:46.219Z,10.29
2022-10-17T21:07:16.701Z,10.25
2022-10-17T21:09:46.762Z,10.22
2022-10-17T21:12:25.970Z,10.19
2022-10-17T21:15:01.997Z,10.14
2022-10-17T21:17:31.771Z,10.02
2022-10-17T21:20:03.173Z,10.12
2022-10-17T21:22:34.578Z,10.06
2022-10-17T21:25:04.873Z,10.11
2022-10-17T21:27:34.669Z,10.00
2022-10-17T21:30:04.815Z,9.98
2022-10-17T21:32:51.186Z,9.87
2022-10-17T21:35:23.026Z,9.91
2022-10-17T21:37:52.777Z,9.87
2022-10-17T21:40:23.882Z,9.85
2022-10-17T21:42:53.900Z,9.93
2022-10-17T21:45:25.856Z,9.76
2022-10-17T21:48:12.182Z,9.86
2022-10-17T21:50:47.259Z,9.86
2022-10-17T21:53:16.967Z,9.88
2022-10-17T21:55:46.679Z,9.83
2022-10-17T21:58:16.319Z,9.83
2022-10-17T22:00:46.075Z,9.76
2022-10-17T22:03:17.139Z,9.81
2022-10-17T22:05:50.589Z,9.72
2022-10-17T22:08:20.305Z,9.73
2022-10-17T22:10:50.146Z,9.80
2022-10-17T22:13:20.168Z,9.76
2022-10-17T22:15:50.088Z,9.73
2022-10-17T22:18:19.694Z,9.69
2022-10-17T22:20:50.911Z,9.72
2022-10-17T22:23:20.458Z,9.71
2022-10-17T22:25:54.033Z,9.66
2022-10-17T22:28:23.689Z,9.70
2022-10-17T22:30:53.685Z,9.74
2022-10-17T22:33:23.318Z,9.76
2022-10-17T22:35:54.376Z,9.79
2022-10-17T22:38:23.961Z,9.69
2022-10-17T22:40:53.688Z,9.52
2022-10-17T22:43:23.517Z,9.58
2022-10-17T22:45:53.823Z,9.62
2022-10-17T22:48:24.179Z,9.58
2022-10-17T22:50:55.563Z,9.50
2022-10-17T22:53:26.599Z,9.49
2022-10-17T22:55:57.213Z,9.29
2022-10-17T22:58:27.634Z,9.41
2022-10-17T23:00:57.297Z,9.43
2022-10-17T23:03:28.541Z,9.28
2022-10-17T23:06:00.085Z,9.33
2022-10-17T23:08:29.919Z,9.28
2022-10-17T23:10:59.672Z,9.19
2022-10-17T23:13:29.803Z,8.99
2022-10-17T23:15:59.730Z,8.96
2022-10-17T23:21:05.709Z,9.03
2022-10-17T23:23:35.340Z,9.10
2022-10-17T23:26:05.761Z,9.09
2022-10-17T23:28:35.754Z,9.03
2022-10-17T23:31:13.102Z,8.98
2022-10-17T23:33:42.872Z,8.80
2022-10-17T23:36:14.644Z,8.86
2022-10-17T23:38:44.736Z,8.98
2022-10-17T23:41:14.920Z,8.88
2022-10-17T23:43:44.682Z,8.88
2022-10-17T23:46:14.256Z,8.93
2022-10-17T23:48:43.844Z,8.91
2022-10-17T23:51:14.813Z,9.00
2022-10-17T23:53:44.737Z,8.99
2022-10-17T23:56:14.337Z,8.83
2022-10-17T23:58:44.264Z,8.77
